Time;durP1;ratioP1;P1;durP2;ratioP2;P2;SDS_P1;SDS_P2;PMS_P1;PMS_P2;Temp;Humidity;BMP_temperature;BMP_pressure;BME280_temperature;BME280_humidity;BME280_pressure;Samples;Min_cycle;Max_cycle;Signal;HPM_P1;HPM_P2
2021/11/26 00:00:38;;;;;;;7.45;4.57;;;4.00;99.90;;;;;;4912576;29;20051;-93
2021/11/26 00:03:04;;;;;;;10.10;6.22;;;4.00;99.90;;;;;;4911258;29;20438;-95
2021/11/26 00:05:33;;;;;;;9.48;5.30;;;4.00;99.90;;;;;;4914419;29;20036;-95
2021/11/26 00:08:00;;;;;;;10.38;5.45;;;4.00;99.90;;;;;;4925844;29;20057;-95
2021/11/26 00:10:27;;;;;;;9.25;5.30;;;4.00;99.90;;;;;;4920379;29;20040;-94
2021/11/26 00:13:25;;;;;;;8.05;5.13;;;4.00;99.90;;;;;;4922016;29;20096;-95
2021/11/26 00:15:57;;;;;;;9.98;4.68;;;4.00;99.90;;;;;;4923625;29;20042;-95
2021/11/26 00:18:35;;;;;;;8.98;5.13;;;4.10;99.90;;;;;;4937958;29;20028;-96
2021/11/26 00:21:05;;;;;;;21.58;7.32;;;4.10;99.90;;;;;;4913468;29;20107;-94
2021/11/26 00:23:33;;;;;;;12.07;4.60;;;4.10;99.90;;;;;;4936779;29;20083;-94
2021/11/26 00:26:00;;;;;;;8.35;4.45;;;4.00;99.90;;;;;;4902992;29;20056;-95
2021/11/26 00:28:28;;;;;;;15.65;6.30;;;4.10;99.90;;;;;;4920015;29;20056;-94
2021/11/26 00:30:54;;;;;;;15.95;5.50;;;4.10;99.90;;;;;;4915547;29;20036;-94
2021/11/26 00:33:23;;;;;;;15.88;5.70;;;4.10;99.90;;;;;;4951179;29;20051;-94
2021/11/26 00:35:50;;;;;;;9.70;5.25;;;4.10;99.90;;;;;;4934825;29;20034;-95
2021/11/26 00:38:19;;;;;;;20.15;6.25;;;4.10;99.90;;;;;;4950285;29;20036;-94
2021/11/26 00:40:45;;;;;;;11.70;4.65;;;4.10;99.90;;;;;;4929376;29;20055;-94
2021/11/26 00:43:11;;;;;;;9.10;4.60;;;4.10;99.90;;;;;;4925858;29;20481;-94
2021/11/26 00:45:37;;;;;;;8.55;4.00;;;4.10;99.90;;;;;;4928895;29;20070;-93
2021/11/26 00:48:03;;;;;;;12.20;3.95;;;4.20;99.90;;;;;;4925023;29;20020;-94
2021/11/26 00:50:30;;;;;;;15.40;4.60;;;4.20;99.90;;;;;;4924230;29;20057;-95
2021/11/26 00:52:56;;;;;;;15.55;4.28;;;4.20;99.90;;;;;;4925286;29;20126;-95
2021/11/26 00:55:21;;;;;;;10.27;3.22;;;4.20;99.90;;;;;;4924468;29;20062;-94
2021/11/26 00:57:55;;;;;;;14.10;2.70;;;4.20;99.90;;;;;;4923231;29;20062;-93
2021/11/26 01:00:21;;;;;;;19.70;2.67;;;4.20;99.90;;;;;;4923151;29;20031;-93
2021/11/26 01:02:47;;;;;;;8.43;2.72;;;4.30;99.90;;;;;;4923053;29;20032;-94
2021/11/26 01:05:13;;;;;;;7.60;2.65;;;4.30;99.90;;;;;;4922182;29;20038;-95
2021/11/26 01:07:41;;;;;;;7.82;2.10;;;4.30;99.90;;;;;;4922409;29;20066;-93
2021/11/26 01:10:09;;;;;;;13.05;2.45;;;4.30;99.90;;;;;;4922494;29;20027;-93
2021/11/26 01:12:35;;;;;;;14.50;3.00;;;4.40;99.90;;;;;;4923488;29;20038;-93
2021/11/26 01:15:04;;;;;;;9.77;2.30;;;4.40;99.90;;;;;;4923890;29;20122;-94
2021/11/26 01:17:30;;;;;;;8.10;2.40;;;4.40;99.90;;;;;;4923738;29;20047;-94
2021/11/26 01:19:55;;;;;;;8.63;1.95;;;4.40;99.90;;;;;;4923403;29;20031;-95
2021/11/26 01:22:21;;;;;;;14.65;2.55;;;4.50;99.90;;;;;;4923618;29;20020;-93
2021/11/26 01:24:47;;;;;;;9.38;2.47;;;4.50;99.90;;;;;;4925711;29;20030;-92
2021/11/26 01:27:13;;;;;;;13.90;2.10;;;4.50;99.90;;;;;;4921196;29;20035;-94
2021/11/26 01:29:38;;;;;;;10.52;2.13;;;4.50;99.90;;;;;;4921251;29;20075;-94
2021/11/26 01:32:05;;;;;;;4.70;1.50;;;4.50;99.90;;;;;;4920907;29;20052;-93
2021/11/26 01:34:31;;;;;;;6.20;1.90;;;4.60;99.90;;;;;;4920933;29;20446;-95
2021/11/26 01:36:57;;;;;;;8.90;2.45;;;4.60;99.90;;;;;;4921788;29;20196;-93
2021/11/26 01:39:23;;;;;;;14.52;2.33;;;4.60;99.90;;;;;;4921490;29;20043;-94
2021/11/26 01:41:51;;;;;;;12.48;2.28;;;4.60;99.90;;;;;;4922300;29;20247;-93
2021/11/26 01:44:17;;;;;;;10.25;1.90;;;4.70;99.90;;;;;;4921704;29;20031;-93
2021/11/26 01:46:43;;;;;;;7.78;2.08;;;4.60;99.90;;;;;;4920960;29;20040;-93
2021/11/26 01:49:10;;;;;;;9.52;2.25;;;4.70;99.90;;;;;;4920680;29;20019;-93
2021/11/26 01:51:36;;;;;;;13.88;2.58;;;4.70;99.90;;;;;;4921019;29;20069;-94
2021/11/26 01:54:03;;;;;;;8.88;2.20;;;4.70;99.90;;;;;;4921086;29;20023;-93
2021/11/26 01:56:30;;;;;;;7.00;1.80;;;4.70;99.90;;;;;;4920665;29;20056;-92
2021/11/26 01:58:56;;;;;;;7.80;1.63;;;4.70;99.90;;;;;;4920729;29;20477;-92
2021/11/26 02:01:22;;;;;;;4.95;1.70;;;4.70;99.90;;;;;;4921129;29;20099;-93
2021/11/26 02:03:48;;;;;;;4.22;1.38;;;4.70;99.90;;;;;;4921496;29;20032;-93
2021/11/26 02:06:14;;;;;;;9.55;1.70;;;4.80;99.90;;;;;;4921445;29;20118;-93
2021/11/26 02:08:40;;;;;;;5.90;1.58;;;4.80;99.90;;;;;;4921978;29;20031;-94
2021/11/26 02:11:06;;;;;;;8.55;2.13;;;4.80;99.90;;;;;;4922086;29;20564;-95
2021/11/26 02:13:32;;;;;;;6.18;1.80;;;4.90;99.90;;;;;;4923272;29;20031;-95
2021/11/26 02:16:00;;;;;;;6.70;1.58;;;4.80;99.90;;;;;;4922768;29;20036;-94
2021/11/26 02:18:26;;;;;;;4.95;1.58;;;4.90;99.90;;;;;;4923304;29;20046;-94
2021/11/26 02:20:52;;;;;;;7.15;1.27;;;4.80;99.90;;;;;;4923301;29;20028;-94
2021/11/26 02:23:21;;;;;;;7.70;1.20;;;4.80;99.90;;;;;;4922444;29;20027;-95
2021/11/26 02:25:47;;;;;;;4.70;1.15;;;4.80;99.90;;;;;;4922409;29;20567;-95
2021/11/26 02:28:14;;;;;;;6.15;1.38;;;4.90;99.90;;;;;;4920607;29;20023;-93
2021/11/26 02:30:41;;;;;;;9.27;1.00;;;4.90;99.90;;;;;;4920832;29;20103;-94
2021/11/26 02:33:12;;;;;;;3.03;1.33;;;4.90;99.90;;;;;;4922173;29;20048;-93
2021/11/26 02:35:39;;;;;;;3.38;0.82;;;4.90;99.90;;;;;;4923023;29;20027;-94
2021/11/26 02:38:08;;;;;;;4.05;0.80;;;4.90;99.90;;;;;;4921948;29;20106;-94
2021/11/26 02:40:36;;;;;;;6.20;1.10;;;4.90;99.90;;;;;;4922368;29;20497;-94
2021/11/26 02:43:02;;;;;;;2.80;0.80;;;4.90;99.90;;;;;;4922496;29;20031;-95
2021/11/26 02:45:28;;;;;;;8.85;2.50;;;4.90;99.90;;;;;;4922208;29;20039;-95
2021/11/26 02:47:55;;;;;;;1.88;0.90;;;4.90;99.90;;;;;;4924548;29;20028;-95
2021/11/26 02:50:23;;;;;;;5.47;0.90;;;4.90;99.90;;;;;;4907743;29;20047;-96
2021/11/26 02:52:48;;;;;;;3.63;0.88;;;4.90;99.90;;;;;;4922047;29;20390;-94
2021/11/26 02:55:17;;;;;;;1.98;0.80;;;4.90;99.90;;;;;;4924558;29;20024;-95
2021/11/26 02:57:43;;;;;;;7.25;0.90;;;5.00;99.90;;;;;;4930479;29;20035;-95
2021/11/26 03:00:13;;;;;;;2.75;1.10;;;4.90;99.90;;;;;;4945642;29;20020;-96
2021/11/26 03:02:39;;;;;;;6.88;1.20;;;4.90;99.90;;;;;;4925282;29;20035;-95
2021/11/26 03:05:05;;;;;;;2.28;1.10;;;4.90;99.90;;;;;;4928234;29;20036;-94
2021/11/26 03:07:32;;;;;;;4.03;1.50;;;5.00;99.90;;;;;;4933359;29;20027;-96
2021/11/26 03:10:00;;;;;;;8.30;2.00;;;4.90;99.90;;;;;;4937167;29;20031;-95
2021/11/26 03:12:26;;;;;;;3.13;1.70;;;4.90;99.90;;;;;;4937125;29;20095;-94
2021/11/26 03:14:51;;;;;;;11.57;2.65;;;5.00;99.90;;;;;;4929885;29;20023;-94
2021/11/26 03:17:18;;;;;;;6.22;2.17;;;5.00;99.90;;;;;;4923403;29;20034;-95
2021/11/26 03:19:44;;;;;;;17.40;1.90;;;5.00;99.90;;;;;;4922150;29;20025;-96
2021/11/26 03:22:11;;;;;;;9.13;2.47;;;5.10;99.90;;;;;;4922222;29;20378;-95
2021/11/26 03:24:36;;;;;;;6.72;1.65;;;5.10;99.90;;;;;;4922227;29;20123;-95
2021/11/26 03:27:02;;;;;;;5.45;2.20;;;5.10;99.90;;;;;;4920833;29;20059;-94
2021/11/26 03:29:28;;;;;;;4.03;1.67;;;5.10;99.90;;;;;;4921149;29;20456;-95
2021/11/26 03:31:54;;;;;;;3.58;1.23;;;5.20;99.90;;;;;;4922386;29;20086;-95
2021/11/26 03:34:19;;;;;;;2.95;1.17;;;5.20;99.90;;;;;;4924580;29;20034;-94
2021/11/26 03:36:48;;;;;;;10.35;1.52;;;5.20;99.90;;;;;;4924563;29;20027;-95
2021/11/26 03:39:13;;;;;;;8.55;1.48;;;5.20;99.90;;;;;;4922511;29;20031;-95
2021/11/26 03:41:43;;;;;;;6.82;1.83;;;5.20;99.90;;;;;;4923326;29;20125;-96
2021/11/26 03:44:09;;;;;;;5.80;1.80;;;5.30;99.90;;;;;;4925377;29;20052;-94
2021/11/26 03:46:36;;;;;;;5.00;2.45;;;5.20;99.90;;;;;;4930710;29;20024;-95
2021/11/26 03:49:03;;;;;;;7.82;2.60;;;5.30;99.90;;;;;;4930948;29;20034;-96
2021/11/26 03:51:33;;;;;;;11.07;3.20;;;5.30;99.90;;;;;;4939251;29;20095;-95
2021/11/26 03:53:59;;;;;;;5.18;2.40;;;5.40;99.90;;;;;;4947293;29;20031;-95
2021/11/26 03:56:25;;;;;;;7.55;3.45;;;5.40;99.90;;;;;;4925162;29;20059;-96
2021/11/26 03:58:51;;;;;;;5.55;2.42;;;5.40;99.90;;;;;;4926277;29;20036;-95
2021/11/26 04:01:16;;;;;;;14.77;3.55;;;5.40;99.90;;;;;;4925999;29;20059;-94
2021/11/26 04:03:42;;;;;;;6.60;2.17;;;5.40;99.90;;;;;;4925427;29;20508;-95
2021/11/26 04:06:08;;;;;;;7.10;2.70;;;5.40;99.90;;;;;;4927234;29;20040;-96
2021/11/26 04:08:34;;;;;;;3.45;1.25;;;5.40;99.90;;;;;;4924470;29;20030;-96
2021/11/26 04:11:00;;;;;;;3.03;1.65;;;5.40;99.90;;;;;;4924049;29;20031;-95
2021/11/26 04:13:27;;;;;;;3.25;1.08;;;5.40;99.90;;;;;;4924001;29;20027;-95
2021/11/26 04:16:00;;;;;;;3.67;1.60;;;5.50;99.90;;;;;;4923203;29;20123;-94
2021/11/26 04:18:26;;;;;;;3.97;1.92;;;5.50;99.90;;;;;;4923910;29;20055;-94
2021/11/26 04:20:52;;;;;;;2.50;1.90;;;5.60;99.90;;;;;;4922763;29;20453;-94
2021/11/26 04:23:18;;;;;;;6.78;1.77;;;5.50;99.90;;;;;;4923243;29;20036;-95
2021/11/26 04:25:43;;;;;;;2.95;2.05;;;5.50;99.90;;;;;;4923028;29;20048;-95
2021/11/26 04:28:09;;;;;;;6.65;2.60;;;5.60;99.90;;;;;;4924382;29;20074;-95
2021/11/26 04:30:35;;;;;;;5.28;2.00;;;5.60;99.90;;;;;;4930462;29;20031;-96
2021/11/26 04:33:01;;;;;;;4.53;2.45;;;5.60;99.90;;;;;;4923931;29;20067;-94
2021/11/26 04:35:27;;;;;;;2.10;1.48;;;5.60;99.90;;;;;;4920877;29;20034;-94
2021/11/26 04:37:53;;;;;;;4.63;1.70;;;5.60;99.90;;;;;;4922080;29;20035;-92
2021/11/26 04:40:19;;;;;;;2.15;1.45;;;5.70;99.90;;;;;;4922334;29;20034;-94
2021/11/26 04:42:45;;;;;;;2.85;1.30;;;5.70;99.90;;;;;;4922176;29;20118;-94
2021/11/26 04:45:13;;;;;;;3.20;1.60;;;5.70;99.90;;;;;;4922380;29;20099;-93
2021/11/26 04:47:40;;;;;;;1.45;1.30;;;5.70;99.90;;;;;;4922198;29;20035;-94
2021/11/26 04:50:07;;;;;;;1.60;1.10;;;5.70;99.90;;;;;;4922085;29;20050;-93
2021/11/26 04:52:33;;;;;;;1.38;1.00;;;5.70;99.90;;;;;;4921930;29;20126;-92
2021/11/26 04:54:59;;;;;;;2.63;1.38;;;5.80;99.90;;;;;;4922035;29;20066;-92
2021/11/26 04:57:24;;;;;;;3.03;1.20;;;5.70;99.90;;;;;;4921790;29;20028;-94
2021/11/26 04:59:51;;;;;;;3.75;0.98;;;5.80;99.90;;;;;;4922161;29;20028;-94
2021/11/26 05:02:16;;;;;;;4.93;1.42;;;5.70;99.90;;;;;;4922741;29;20027;-94
2021/11/26 05:04:42;;;;;;;3.85;1.60;;;5.80;99.90;;;;;;4930715;29;20039;-93
2021/11/26 05:07:08;;;;;;;3.60;1.80;;;5.80;99.90;;;;;;4933676;29;20067;-94
2021/11/26 05:09:33;;;;;;;2.88;1.60;;;5.80;99.90;;;;;;4925999;29;20028;-94
2021/11/26 05:12:02;;;;;;;7.97;2.13;;;5.80;99.90;;;;;;4940035;29;20031;-95
2021/11/26 05:14:30;;;;;;;6.82;2.35;;;5.80;99.90;;;;;;4926441;29;20063;-94
2021/11/26 05:16:56;;;;;;;1.75;1.35;;;5.90;99.90;;;;;;4926659;29;20024;-94
2021/11/26 05:19:22;;;;;;;2.45;1.80;;;5.90;99.90;;;;;;4922427;29;20027;-94
2021/11/26 05:21:47;;;;;;;4.50;2.00;;;5.90;99.90;;;;;;4921759;29;20142;-94
2021/11/26 05:24:13;;;;;;;4.10;2.45;;;5.90;99.90;;;;;;4921302;29;20027;-93
2021/11/26 05:26:40;;;;;;;3.35;1.63;;;5.90;99.90;;;;;;4921851;29;20032;-93
2021/11/26 05:29:06;;;;;;;3.65;1.52;;;5.90;99.90;;;;;;4924752;29;20030;-95
2021/11/26 05:31:36;;;;;;;5.40;1.08;;;5.90;99.90;;;;;;4921841;29;20127;-93
2021/11/26 05:34:06;;;;;;;3.20;1.50;;;5.90;99.90;;;;;;4921287;29;20027;-94
2021/11/26 05:36:33;;;;;;;1.92;1.48;;;5.90;99.90;;;;;;4921790;29;20371;-94
2021/11/26 05:38:59;;;;;;;3.38;1.58;;;6.00;99.90;;;;;;4921562;29;20047;-94
2021/11/26 05:41:25;;;;;;;4.55;1.52;;;6.00;99.90;;;;;;4921286;29;20019;-94
2021/11/26 05:43:50;;;;;;;4.93;1.60;;;5.90;99.90;;;;;;4920946;29;20102;-93
2021/11/26 05:46:16;;;;;;;5.78;1.50;;;5.90;99.90;;;;;;4921289;29;20032;-95
2021/11/26 05:48:42;;;;;;;2.97;1.20;;;5.90;99.90;;;;;;4923865;29;20028;-94
2021/11/26 05:51:08;;;;;;;1.35;1.25;;;5.90;99.90;;;;;;4924888;29;20032;-94
2021/11/26 05:53:34;;;;;;;1.90;1.17;;;6.00;99.90;;;;;;4925538;29;20039;-93
2021/11/26 05:56:00;;;;;;;3.83;1.67;;;5.90;99.90;;;;;;4926009;29;20086;-94
2021/11/26 05:58:27;;;;;;;2.25;2.05;;;6.00;99.90;;;;;;4927481;29;20031;-94
2021/11/26 06:00:54;;;;;;;3.17;2.08;;;6.00;99.90;;;;;;4925426;29;20028;-93
2021/11/26 06:03:19;;;;;;;2.00;1.23;;;6.00;99.90;;;;;;4924994;29;20047;-92
2021/11/26 06:05:45;;;;;;;2.28;1.83;;;6.00;99.90;;;;;;4922797;29;20035;-95
2021/11/26 06:08:11;;;;;;;2.78;1.83;;;6.10;99.90;;;;;;4920943;29;20131;-92
2021/11/26 06:10:37;;;;;;;4.82;2.47;;;6.00;99.90;;;;;;4920424;29;20027;-93
2021/11/26 06:13:02;;;;;;;7.07;2.58;;;6.10;99.90;;;;;;4920653;29;20118;-94
2021/11/26 06:15:28;;;;;;;2.55;1.67;;;6.10;99.90;;;;;;4920855;29;20624;-93
2021/11/26 06:17:54;;;;;;;5.55;2.20;;;6.10;99.90;;;;;;4920829;29;20139;-92
2021/11/26 06:20:21;;;;;;;5.68;2.00;;;6.10;99.90;;;;;;4920515;29;20113;-93
2021/11/26 06:22:47;;;;;;;5.03;2.10;;;6.20;99.90;;;;;;4920536;29;20453;-94
2021/11/26 06:25:16;;;;;;;5.45;2.50;;;6.10;99.90;;;;;;4920939;29;20161;-94
2021/11/26 06:27:43;;;;;;;2.65;1.73;;;6.20;99.90;;;;;;4920730;29;20042;-93
2021/11/26 06:30:11;;;;;;;2.35;1.40;;;6.20;99.90;;;;;;4919985;29;20076;-93
2021/11/26 06:32:38;;;;;;;3.65;1.73;;;6.20;99.90;;;;;;4920497;29;20103;-95
2021/11/26 06:35:04;;;;;;;4.35;2.22;;;6.30;99.90;;;;;;4920988;29;20024;-94
2021/11/26 06:37:29;;;;;;;5.53;1.77;;;6.30;99.90;;;;;;4920454;29;20130;-94
2021/11/26 06:39:55;;;;;;;5.00;1.77;;;6.30;99.90;;;;;;4920060;29;20481;-92
2021/11/26 06:42:21;;;;;;;1.52;1.27;;;6.30;99.90;;;;;;4920469;29;20445;-91
2021/11/26 06:44:47;;;;;;;3.45;1.40;;;6.40;99.90;;;;;;4920121;29;20028;-94
2021/11/26 06:47:12;;;;;;;2.75;1.10;;;6.50;99.90;;;;;;4920392;29;20023;-93
2021/11/26 06:49:38;;;;;;;3.33;1.00;;;6.50;99.90;;;;;;4920368;29;20540;-96
2021/11/26 06:52:04;;;;;;;5.15;0.98;;;6.50;99.90;;;;;;4920628;29;20024;-95
2021/11/26 06:54:30;;;;;;;2.35;0.80;;;6.50;99.90;;;;;;4920555;29;20175;-94
2021/11/26 06:56:55;;;;;;;3.15;0.60;;;6.60;99.90;;;;;;4922877;29;20057;-92
2021/11/26 06:59:21;;;;;;;3.25;0.90;;;6.60;99.90;;;;;;4922938;29;20183;-92
2021/11/26 07:01:47;;;;;;;3.75;0.93;;;6.60;99.90;;;;;;4921258;29;20031;-93
2021/11/26 07:04:13;;;;;;;4.22;0.80;;;6.70;99.90;;;;;;4921544;29;20028;-93
2021/11/26 07:06:39;;;;;;;4.68;0.90;;;6.70;99.90;;;;;;4920770;29;20032;-93
2021/11/26 07:09:06;;;;;;;10.50;1.42;;;6.80;99.90;;;;;;4921298;29;20043;-94
2021/11/26 07:11:32;;;;;;;9.05;1.60;;;6.80;99.90;;;;;;4920887;29;20028;-93
2021/11/26 07:13:58;;;;;;;16.58;1.73;;;6.80;99.90;;;;;;4919999;29;20043;-92
2021/11/26 07:16:23;;;;;;;13.07;1.17;;;6.90;99.90;;;;;;4921388;29;20023;-94
2021/11/26 07:18:49;;;;;;;9.65;1.13;;;6.90;99.90;;;;;;4922253;29;20032;-95
2021/11/26 07:21:15;;;;;;;5.50;0.73;;;6.90;99.90;;;;;;4921906;29;20039;-93
2021/11/26 07:23:40;;;;;;;6.03;2.10;;;6.90;99.90;;;;;;4922810;29;20024;-94
2021/11/26 07:26:07;;;;;;;13.75;1.75;;;7.00;99.90;;;;;;4922820;29;20375;-94
2021/11/26 07:28:32;;;;;;;11.05;1.15;;;7.00;99.90;;;;;;4923336;29;20024;-94
2021/11/26 07:30:58;;;;;;;7.57;1.20;;;7.00;99.90;;;;;;4922902;29;20648;-94
2021/11/26 07:33:24;;;;;;;11.10;1.48;;;7.00;99.90;;;;;;4923129;29;20043;-94
2021/11/26 07:35:50;;;;;;;7.82;1.45;;;7.00;99.90;;;;;;4922938;29;20405;-94
2021/11/26 07:38:16;;;;;;;9.50;0.95;;;7.00;99.90;;;;;;4922746;29;20019;-96
2021/11/26 07:40:41;;;;;;;13.20;1.52;;;7.00;99.90;;;;;;4923058;29;20392;-94
2021/11/26 07:43:07;;;;;;;14.25;1.55;;;7.00;99.90;;;;;;4922924;29;20489;-95
2021/11/26 07:45:33;;;;;;;10.70;1.52;;;7.00;99.90;;;;;;4922692;29;20197;-94
2021/11/26 07:48:00;;;;;;;6.85;1.45;;;7.00;99.90;;;;;;4922609;29;20027;-94
2021/11/26 07:50:29;;;;;;;9.98;1.25;;;7.00;99.90;;;;;;4922987;29;20020;-94
2021/11/26 07:52:54;;;;;;;10.35;0.80;;;7.00;99.90;;;;;;4922670;29;20019;-94
2021/11/26 07:55:20;;;;;;;7.03;1.38;;;6.90;99.90;;;;;;4922238;29;20042;-94
2021/11/26 07:57:46;;;;;;;6.55;1.33;;;7.00;99.90;;;;;;4921987;29;20063;-94
2021/11/26 08:00:12;;;;;;;14.82;1.35;;;6.90;99.90;;;;;;4921756;29;20047;-93
2021/11/26 08:02:38;;;;;;;9.25;1.88;;;6.90;99.90;;;;;;4922318;29;20485;-92
2021/11/26 08:05:04;;;;;;;13.85;1.63;;;6.90;99.90;;;;;;4922362;29;20030;-92
2021/11/26 08:07:30;;;;;;;8.60;1.15;;;6.80;99.90;;;;;;4922256;29;20031;-93
2021/11/26 08:09:56;;;;;;;7.85;1.15;;;6.80;99.90;;;;;;4922601;29;20042;-91
2021/11/26 08:12:22;;;;;;;10.05;1.05;;;6.80;99.90;;;;;;4922646;29;20034;-92
2021/11/26 08:14:51;;;;;;;11.30;1.08;;;6.70;99.90;;;;;;4918933;29;20050;-92
2021/11/26 08:17:17;;;;;;;9.35;1.30;;;6.70;99.90;;;;;;4939426;28;20095;-93
2021/11/26 08:19:43;;;;;;;14.73;1.17;;;6.70;99.90;;;;;;4922366;29;20031;-94
2021/11/26 08:22:09;;;;;;;5.75;1.27;;;6.60;99.90;;;;;;4920624;29;20544;-91
2021/11/26 08:24:35;;;;;;;8.70;1.15;;;6.60;99.90;;;;;;4935564;29;20083;-90
2021/11/26 08:27:01;;;;;;;10.02;1.38;;;6.60;99.90;;;;;;4921024;29;20086;-92
2021/11/26 08:29:27;;;;;;;12.70;1.33;;;6.60;99.90;;;;;;4921067;29;20020;-93
2021/11/26 08:31:54;;;;;;;12.00;1.25;;;6.50;99.90;;;;;;4921098;29;20453;-93
2021/11/26 08:34:19;;;;;;;14.73;1.40;;;6.50;99.90;;;;;;4922054;29;20024;-92
2021/11/26 08:36:45;;;;;;;11.32;1.38;;;6.50;99.90;;;;;;4920496;29;20024;-93
2021/11/26 08:39:11;;;;;;;18.92;1.73;;;6.50;99.90;;;;;;4921702;29;20196;-92
2021/11/26 08:41:37;;;;;;;9.73;1.23;;;6.50;99.90;;;;;;4922058;29;20020;-93
2021/11/26 08:44:03;;;;;;;12.98;1.52;;;6.50;99.90;;;;;;4921299;29;20066;-93
2021/11/26 08:46:29;;;;;;;20.05;2.58;;;6.50;99.90;;;;;;4912559;29;20040;-93
2021/11/26 08:48:55;;;;;;;7.15;0.98;;;6.40;99.90;;;;;;4915923;29;20032;-94
2021/11/26 08:51:25;;;;;;;14.18;1.48;;;6.40;99.90;;;;;;4909543;29;20028;-92
2021/11/26 08:53:50;;;;;;;8.80;1.17;;;6.40;99.90;;;;;;4916259;29;20031;-92
2021/11/26 08:56:18;;;;;;;10.27;1.73;;;6.40;99.90;;;;;;4919704;29;20055;-91
2021/11/26 08:58:46;;;;;;;14.55;2.42;;;6.40;99.90;;;;;;4917349;29;20024;-91
2021/11/26 09:01:13;;;;;;;11.38;1.25;;;6.30;99.90;;;;;;4916361;29;20454;-93
2021/11/26 09:03:38;;;;;;;16.02;1.70;;;6.40;99.90;;;;;;4913010;29;20383;-93
2021/11/26 09:06:07;;;;;;;13.55;1.40;;;6.30;99.90;;;;;;4911712;29;20122;-94
2021/11/26 09:08:33;;;;;;;7.82;1.30;;;6.30;99.90;;;;;;4904391;29;20075;-92
2021/11/26 09:10:59;;;;;;;12.52;1.00;;;6.40;99.90;;;;;;4904682;29;20040;-92
2021/11/26 09:13:25;;;;;;;3.63;0.70;;;6.30;99.90;;;;;;4904117;29;20155;-91
2021/11/26 09:15:53;;;;;;;4.97;0.75;;;6.30;99.90;;;;;;4909689;29;20621;-92
2021/11/26 09:18:23;;;;;;;12.13;1.83;;;6.30;99.90;;;;;;4922082;29;20035;-92
2021/11/26 09:20:53;;;;;;;9.60;1.92;;;6.30;99.90;;;;;;4921780;29;20020;-92
2021/11/26 09:23:21;;;;;;;10.77;1.65;;;6.40;99.90;;;;;;4920923;29;20039;-92
2021/11/26 09:25:50;;;;;;;6.13;1.42;;;6.40;99.90;;;;;;4921174;29;20036;-91
2021/11/26 09:28:17;;;;;;;5.80;1.20;;;6.40;99.90;;;;;;4921357;29;20027;-91
2021/11/26 09:30:48;;;;;;;10.65;1.35;;;6.50;99.90;;;;;;4921272;29;20118;-92
2021/11/26 09:33:14;;;;;;;10.43;1.52;;;6.60;99.90;;;;;;4904964;29;20068;-93
2021/11/26 09:35:40;;;;;;;7.57;1.15;;;6.60;99.90;;;;;;4901727;29;20512;-92
2021/11/26 09:38:05;;;;;;;16.85;1.67;;;6.60;99.90;;;;;;4901586;29;20021;-91
2021/11/26 09:40:33;;;;;;;9.98;1.60;;;6.70;99.90;;;;;;4900696;29;20031;-91
2021/11/26 09:43:00;;;;;;;4.70;1.00;;;6.70;99.90;;;;;;4896924;29;20031;-91
2021/11/26 09:45:32;;;;;;;18.35;1.60;;;6.70;99.90;;;;;;4889041;29;20411;-91
2021/11/26 09:47:59;;;;;;;12.80;2.08;;;6.70;99.90;;;;;;4889163;29;20048;-91
2021/11/26 09:50:27;;;;;;;13.80;1.63;;;6.80;99.90;;;;;;4897525;29;20119;-92
2021/11/26 09:53:16;;;;;;;9.13;1.60;;;6.80;99.90;;;;;;4900017;29;20065;-92
2021/11/26 09:55:51;;;;;;;16.38;1.65;;;6.80;99.90;;;;;;4900946;29;20367;-90
2021/11/26 09:58:23;;;;;;;15.55;1.85;;;6.80;99.90;;;;;;4889873;29;20080;-91
2021/11/26 10:00:49;;;;;;;11.55;1.30;;;6.80;99.90;;;;;;4887174;29;20029;-91
2021/11/26 10:03:21;;;;;;;11.07;1.70;;;6.90;99.90;;;;;;4894935;29;20032;-91
2021/11/26 10:05:47;;;;;;;8.80;1.45;;;7.00;99.90;;;;;;4899106;29;20501;-90
2021/11/26 10:08:23;;;;;;;12.40;1.98;;;7.10;99.90;;;;;;4898067;29;20058;-91
2021/11/26 10:11:00;;;;;;;15.40;1.70;;;7.20;99.90;;;;;;4901382;29;20050;-91
2021/11/26 10:13:31;;;;;;;9.23;1.60;;;7.20;99.90;;;;;;4899914;29;20029;-91
2021/11/26 10:16:11;;;;;;;12.68;2.17;;;7.30;99.90;;;;;;4899733;29;20035;-91
2021/11/26 10:18:37;;;;;;;13.73;1.73;;;7.20;99.90;;;;;;4899965;29;20490;-92
2021/11/26 10:21:16;;;;;;;20.17;2.78;;;7.20;99.90;;;;;;4899056;29;20028;-91
2021/11/26 10:23:50;;;;;;;16.70;2.22;;;7.20;99.90;;;;;;4899560;29;20031;-91
2021/11/26 10:26:29;;;;;;;9.55;1.45;;;7.20;99.90;;;;;;4899153;29;20130;-91
2021/11/26 10:29:02;;;;;;;11.35;1.45;;;7.20;99.90;;;;;;4899123;29;20127;-91
2021/11/26 10:31:38;;;;;;;9.25;1.55;;;7.10;99.90;;;;;;4902998;29;20056;-92
2021/11/26 10:34:08;;;;;;;12.93;1.65;;;7.10;99.90;;;;;;4919827;29;20173;-93
2021/11/26 10:36:53;;;;;;;5.85;1.25;;;7.10;99.90;;;;;;4920024;29;20036;-92
2021/11/26 10:39:21;;;;;;;8.57;2.10;;;7.10;99.90;;;;;;4919956;29;20024;-90
2021/11/26 10:41:53;;;;;;;7.95;1.23;;;7.10;99.90;;;;;;4920823;29;20042;-91
2021/11/26 10:44:23;;;;;;;12.73;1.65;;;7.10;99.90;;;;;;4920222;29;20035;-92
2021/11/26 10:47:02;;;;;;;6.63;1.20;;;7.10;99.90;;;;;;4919571;29;20040;-93
2021/11/26 10:52:18;;;;;;;9.07;1.17;;;7.00;99.90;;;;;;4936704;29;20034;-92
2021/11/26 11:00:18;;;;;;;9.68;1.45;;;7.20;99.90;;;;;;4940886;29;20030;-92
2021/11/26 11:02:46;;;;;;;5.13;1.02;;;7.30;99.90;;;;;;4923756;29;20485;-91
2021/11/26 11:05:41;;;;;;;6.05;1.25;;;7.50;99.90;;;;;;4923656;29;20067;-92
2021/11/26 11:08:22;;;;;;;6.60;0.93;;;7.50;99.90;;;;;;4903898;29;20127;-93
2021/11/26 11:10:48;;;;;;;5.35;1.02;;;7.40;99.90;;;;;;4923675;29;20536;-93
2021/11/26 11:13:29;;;;;;;4.88;1.00;;;7.30;99.90;;;;;;4923381;29;20038;-92
2021/11/26 11:16:05;;;;;;;5.55;1.05;;;7.20;99.90;;;;;;4923284;29;20024;-92
2021/11/26 11:18:30;;;;;;;6.95;1.50;;;7.20;99.90;;;;;;4923304;29;20032;-91
2021/11/26 11:20:56;;;;;;;7.53;1.13;;;7.30;99.90;;;;;;4923174;29;20028;-92
2021/11/26 11:23:22;;;;;;;5.60;1.60;;;7.40;99.90;;;;;;4923177;29;20043;-92
2021/11/26 11:25:48;;;;;;;4.63;0.70;;;7.50;99.90;;;;;;4918119;29;20063;-91
2021/11/26 11:28:15;;;;;;;7.43;1.10;;;7.60;99.90;;;;;;4916281;29;20092;-92
2021/11/26 11:30:41;;;;;;;4.30;1.00;;;7.60;99.90;;;;;;4921150;29;20040;-93
2021/11/26 11:33:08;;;;;;;4.78;1.13;;;7.60;99.90;;;;;;4921220;29;20040;-93
2021/11/26 11:35:37;;;;;;;7.00;0.75;;;7.50;99.90;;;;;;4903127;29;20135;-92
2021/11/26 11:38:04;;;;;;;4.45;0.90;;;7.60;99.90;;;;;;4909163;29;20032;-92
2021/11/26 11:40:33;;;;;;;1.85;0.75;;;7.50;99.90;;;;;;4921772;29;20066;-93
2021/11/26 11:43:20;;;;;;;9.82;1.10;;;7.40;99.90;;;;;;4922278;29;20512;-92
2021/11/26 11:46:01;;;;;;;3.58;0.65;;;7.40;99.90;;;;;;4920084;29;20036;-93
2021/11/26 11:48:32;;;;;;;4.63;0.50;;;7.40;99.90;;;;;;4901670;29;20024;-91
2021/11/26 11:50:58;;;;;;;7.35;0.82;;;7.40;99.90;;;;;;4910112;29;20058;-93
2021/11/26 11:54:00;;;;;;;4.53;0.77;;;7.50;99.90;;;;;;4914546;29;20066;-92
2021/11/26 13:04:47;;;;;;;0.45;0.10;;;11.40;88.40;;;;;;5545970;23;20043;-95
2021/11/26 13:07:18;;;;;;;1.50;0.10;;;11.00;89.20;;;;;;4941551;29;20564;-95
2021/11/26 13:09:53;;;;;;;2.63;0.20;;;10.70;90.20;;;;;;4942747;29;20031;-95
2021/11/26 13:12:52;;;;;;;1.92;0.20;;;10.50;90.70;;;;;;4942292;29;20028;-95
2021/11/26 13:15:36;;;;;;;0.28;0.13;;;10.10;91.10;;;;;;4928189;29;20102;-96
2021/11/26 13:18:23;;;;;;;1.20;0.15;;;9.70;91.70;;;;;;4956275;29;20126;-96
2021/11/26 13:20:58;;;;;;;3.25;0.35;;;9.30;92.30;;;;;;4947163;29;20035;-95
2021/11/26 13:23:38;;;;;;;0.63;0.20;;;9.00;93.10;;;;;;4949886;29;20062;-96
2021/11/26 13:26:08;;;;;;;1.35;0.13;;;8.60;93.80;;;;;;4946772;29;20032;-95
2021/11/26 13:28:46;;;;;;;0.15;0.10;;;8.40;94.40;;;;;;4948083;29;20031;-95
2021/11/26 13:31:20;;;;;;;8.70;1.25;;;8.30;95.10;;;;;;4952717;29;20023;-94
2021/11/26 13:33:48;;;;;;;1.75;0.30;;;8.10;95.60;;;;;;4952119;29;20020;-95
2021/11/26 13:36:27;;;;;;;0.30;0.20;;;8.00;96.10;;;;;;4951661;29;20027;-95
2021/11/26 13:38:53;;;;;;;1.52;0.25;;;8.00;96.60;;;;;;4955289;29;20031;-96
2021/11/26 13:41:26;;;;;;;1.10;0.30;;;7.90;97.00;;;;;;4952089;29;20034;-95
2021/11/26 13:44:08;;;;;;;1.17;0.30;;;7.80;97.30;;;;;;4953127;29;20109;-95
2021/11/26 13:46:43;;;;;;;0.57;0.20;;;7.70;97.80;;;;;;4948944;29;20039;-94
2021/11/26 13:49:23;;;;;;;2.33;0.43;;;7.50;98.30;;;;;;4945328;29;20031;-94
2021/11/26 13:51:54;;;;;;;0.95;0.30;;;7.40;98.60;;;;;;4947907;29;20039;-93
2021/11/26 13:54:27;;;;;;;0.28;0.28;;;7.30;99.00;;;;;;4948494;29;20031;-94
2021/11/26 13:57:20;;;;;;;1.25;0.32;;;7.10;99.60;;;;;;4951406;29;20041;-95
2021/11/26 14:00:06;;;;;;;0.52;0.20;;;7.00;99.90;;;;;;4941869;29;20043;-95
2021/11/26 14:03:04;;;;;;;0.20;0.20;;;6.90;99.90;;;;;;4972210;29;20064;-95
2021/11/26 14:05:42;;;;;;;1.02;0.47;;;6.80;99.90;;;;;;4960910;28;20128;-95
2021/11/26 14:08:13;;;;;;;0.70;0.25;;;6.70;99.90;;;;;;4926220;29;20468;-94
2021/11/26 14:10:54;;;;;;;0.30;0.13;;;6.60;99.10;;;;;;4927225;29;20535;-95
2021/11/26 14:13:22;;;;;;;0.50;0.20;;;6.60;97.20;;;;;;4921907;29;20031;-94
2021/11/26 14:15:49;;;;;;;0.17;0.17;;;6.60;95.80;;;;;;4919611;29;20080;-95
2021/11/26 14:18:16;;;;;;;0.08;0.08;;;6.50;95.00;;;;;;4923127;29;20055;-95